createdAt,value
2018-06-20T00:00:41.116Z,98681.00
2018-06-20T00:03:20.743Z,98683.00
2018-06-20T00:06:01.959Z,98685.00
2018-06-20T00:08:44.144Z,98684.00
2018-06-20T00:11:25.426Z,98686.00
2018-06-20T00:14:06.660Z,98679.00
2018-06-20T00:16:46.420Z,98678.00
2018-06-20T00:19:26.098Z,98682.00
2018-06-20T00:22:03.602Z,98676.00
2018-06-20T00:24:42.495Z,98675.00
2018-06-20T00:27:22.240Z,98670.00
2018-06-20T00:30:02.297Z,98674.00
2018-06-20T00:32:41.817Z,98679.00
2018-06-20T00:35:21.556Z,98673.00
2018-06-20T00:38:01.742Z,98674.00
2018-06-20T00:40:41.146Z,98676.00
2018-06-20T00:43:25.159Z,98672.00
2018-06-20T00:46:04.997Z,98672.00
2018-06-20T00:48:44.881Z,98669.00
2018-06-20T00:51:24.178Z,98664.00
2018-06-20T00:54:02.515Z,98668.00
2018-06-20T00:56:42.222Z,98671.00
2018-06-20T00:59:22.100Z,98668.00
2018-06-20T01:02:01.754Z,98670.00
2018-06-20T01:04:41.359Z,98668.00
2018-06-20T01:07:20.758Z,98663.00
2018-06-20T01:10:00.048Z,98659.00
2018-06-20T01:12:40.785Z,98663.00
2018-06-20T01:15:26.659Z,98660.00
2018-06-20T01:18:08.777Z,98668.00
2018-06-20T01:20:50.266Z,98666.00
2018-06-20T01:23:34.244Z,98666.00
2018-06-20T01:26:15.104Z,98671.00
2018-06-20T01:28:58.161Z,98670.00
2018-06-20T01:31:37.759Z,98669.00
2018-06-20T01:34:17.777Z,98665.00
2018-06-20T01:36:58.782Z,98663.00
2018-06-20T01:39:38.919Z,98663.00
2018-06-20T01:42:18.340Z,98670.00
2018-06-20T01:44:59.300Z,98672.00
2018-06-20T01:47:40.404Z,98676.00
2018-06-20T01:50:21.484Z,98673.00
2018-06-20T01:53:02.683Z,98670.00
2018-06-20T01:55:43.978Z,98669.00
2018-06-20T01:58:25.345Z,98663.00
2018-06-20T02:01:05.762Z,98668.00
2018-06-20T02:03:47.895Z,98662.00
2018-06-20T02:06:29.178Z,98663.00
2018-06-20T02:09:08.536Z,98665.00
2018-06-20T02:11:48.623Z,98660.00
2018-06-20T02:14:28.302Z,98659.00
2018-06-20T02:17:10.123Z,98663.00
2018-06-20T02:19:49.419Z,98666.00
2018-06-20T02:22:30.888Z,98671.00
2018-06-20T02:25:10.639Z,98672.00
2018-06-20T02:27:49.736Z,98668.00
2018-06-20T02:30:30.104Z,98667.00
2018-06-20T02:33:08.961Z,98672.00
2018-06-20T02:35:48.181Z,98667.00
2018-06-20T02:38:28.017Z,98668.00
2018-06-20T02:41:07.576Z,98667.00
2018-06-20T02:43:48.341Z,98674.00
2018-06-20T02:46:28.260Z,98672.00
2018-06-20T02:49:07.804Z,98671.00
2018-06-20T02:51:48.778Z,98676.00
2018-06-20T02:54:30.260Z,98666.00
2018-06-20T02:57:09.465Z,98660.00
2018-06-20T02:59:49.082Z,98661.00
2018-06-20T03:02:29.339Z,98656.00
2018-06-20T03:05:09.053Z,98650.00
2018-06-20T03:07:49.396Z,98647.00
2018-06-20T03:10:28.802Z,98648.00
2018-06-20T03:13:09.660Z,98643.00
2018-06-20T03:15:49.180Z,98644.00
2018-06-20T03:18:28.756Z,98646.00
2018-06-20T03:21:09.241Z,98648.00
2018-06-20T03:23:46.597Z,98645.00
2018-06-20T03:26:26.806Z,98651.00
2018-06-20T03:29:05.778Z,98647.00
2018-06-20T03:31:47.129Z,98649.00
2018-06-20T03:34:26.562Z,98651.00
2018-06-20T03:37:06.055Z,98650.00
2018-06-20T03:39:46.101Z,98652.00
2018-06-20T03:42:26.705Z,98656.00
2018-06-20T03:45:06.205Z,98662.00
2018-06-20T03:47:44.820Z,98660.00
2018-06-20T03:50:24.980Z,98659.00
2018-06-20T03:53:03.000Z,98662.00
2018-06-20T03:55:45.853Z,98661.00
2018-06-20T03:58:26.114Z,98665.00
2018-06-20T04:01:04.979Z,98658.00
2018-06-20T04:03:45.382Z,98667.00
2018-06-20T04:06:24.819Z,98663.00
2018-06-20T04:09:06.817Z,98662.00
2018-06-20T04:11:46.822Z,98661.00
2018-06-20T04:14:28.561Z,98656.00
2018-06-20T04:17:09.228Z,98658.00
2018-06-20T04:19:51.122Z,98652.00
2018-06-20T04:22:29.820Z,98654.00
2018-06-20T04:25:11.263Z,98653.00
2018-06-20T04:27:55.723Z,98653.00
2018-06-20T04:30:36.945Z,98653.00
2018-06-20T04:33:17.164Z,98652.00
2018-06-20T04:35:58.601Z,98645.00
2018-06-20T04:38:39.227Z,98651.00
2018-06-20T04:41:24.041Z,98647.00
2018-06-20T04:44:08.062Z,98646.00
2018-06-20T04:46:48.780Z,98646.00
2018-06-20T04:49:29.120Z,98649.00
2018-06-20T04:52:07.757Z,98642.00
2018-06-20T04:54:50.901Z,98640.00
2018-06-20T04:57:34.603Z,98643.00
2018-06-20T05:00:14.423Z,98641.00
2018-06-20T05:02:55.089Z,98643.00
2018-06-20T05:05:34.435Z,98640.00
2018-06-20T05:08:13.264Z,98643.00
2018-06-20T05:10:53.161Z,98642.00
2018-06-20T05:13:34.198Z,98639.00
2018-06-20T05:16:14.177Z,98635.00
2018-06-20T05:18:56.520Z,98636.00
2018-06-20T05:21:37.464Z,98636.00
2018-06-20T05:24:20.936Z,98637.00
2018-06-20T05:27:00.963Z,98627.00
2018-06-20T05:29:39.360Z,98628.00
2018-06-20T05:32:17.942Z,98630.00
2018-06-20T05:34:56.842Z,98624.00
2018-06-20T05:37:34.442Z,98625.00
2018-06-20T05:40:12.467Z,98621.00
2018-06-20T05:42:57.357Z,98625.00
2018-06-20T05:45:36.542Z,98623.00
2018-06-20T05:48:15.017Z,98623.00
2018-06-20T05:50:56.938Z,98630.00
2018-06-20T05:53:42.079Z,98625.00
2018-06-20T05:56:21.339Z,98623.00
2018-06-20T05:59:02.836Z,98625.00
2018-06-20T06:01:41.957Z,98620.00
2018-06-20T06:04:21.302Z,98622.00
2018-06-20T06:07:04.261Z,98619.00
2018-06-20T06:09:47.979Z,98613.00
2018-06-20T06:12:29.923Z,98611.00
2018-06-20T06:15:11.467Z,98613.00
2018-06-20T06:17:55.558Z,98614.00
2018-06-20T06:20:37.061Z,98605.00
2018-06-20T06:23:17.457Z,98601.00
2018-06-20T06:26:03.463Z,98601.00
2018-06-20T06:28:43.520Z,98599.00
2018-06-20T06:31:22.624Z,98598.00
2018-06-20T06:34:01.247Z,98596.00
2018-06-20T06:36:43.084Z,98590.00
2018-06-20T06:39:26.117Z,98591.00
2018-06-20T06:42:15.300Z,98590.00
2018-06-20T06:44:57.540Z,98590.00
2018-06-20T06:47:39.197Z,98590.00
2018-06-20T06:50:21.438Z,98592.00
2018-06-20T06:53:06.401Z,98591.00
2018-06-20T06:55:53.079Z,98593.00
2018-06-20T06:58:35.942Z,98590.00
2018-06-20T07:01:16.642Z,98584.00
2018-06-20T07:03:57.201Z,98583.00
2018-06-20T07:06:37.499Z,98575.00
2018-06-20T07:09:21.089Z,98571.00
2018-06-20T07:12:07.380Z,98567.00
2018-06-20T07:14:45.818Z,98561.00
2018-06-20T07:17:33.145Z,98564.00
2018-06-20T07:20:13.701Z,98561.00
2018-06-20T07:22:53.158Z,98561.00
2018-06-20T07:25:35.038Z,98554.00
2018-06-20T07:28:13.962Z,98548.00
2018-06-20T07:30:57.566Z,98546.00
2018-06-20T07:33:41.340Z,98541.00
2018-06-20T07:36:19.934Z,98533.00
2018-06-20T07:39:16.399Z,98531.00
2018-06-20T07:44:45.983Z,98526.00
2018-06-20T07:47:27.826Z,98525.00
2018-06-20T07:50:19.036Z,98521.00
2018-06-20T08:07:49.041Z,98506.00
2018-06-20T08:10:28.981Z,98506.00
2018-06-20T08:13:12.460Z,98510.00
2018-06-20T08:15:56.382Z,98505.00
2018-06-20T08:18:39.222Z,98503.00
2018-06-20T08:21:20.859Z,98501.00
2018-06-20T08:24:01.139Z,98500.00
2018-06-20T08:26:39.341Z,98500.00
2018-06-20T08:29:17.896Z,98498.00
2018-06-20T08:31:56.756Z,98495.00
2018-06-20T08:34:36.062Z,98492.00
2018-06-20T08:37:15.426Z,98495.00
2018-06-20T08:39:57.906Z,98499.00
2018-06-20T08:42:37.862Z,98493.00
2018-06-20T08:45:17.097Z,98488.00
2018-06-20T08:47:57.360Z,98484.00
2018-06-20T08:50:39.345Z,98490.00
2018-06-20T08:53:22.839Z,98486.00
2018-06-20T08:56:04.983Z,98480.00
2018-06-20T08:58:50.596Z,98482.00
2018-06-20T09:01:31.980Z,98484.00
2018-06-20T09:04:16.859Z,98475.00
2018-06-20T09:07:04.735Z,98474.00
2018-06-20T09:09:53.866Z,98469.00
2018-06-20T09:12:38.277Z,98470.00
2018-06-20T09:15:20.414Z,98477.00
2018-06-20T09:18:14.665Z,98477.00
2018-06-20T09:20:58.963Z,98475.00
2018-06-20T09:23:43.128Z,98467.00
2018-06-20T09:26:26.381Z,98464.00
2018-06-20T09:29:04.277Z,98462.00
2018-06-20T09:31:42.646Z,98462.00
2018-06-20T09:34:24.499Z,98457.00
2018-06-20T09:37:09.821Z,98455.00
2018-06-20T09:39:51.957Z,98454.00
2018-06-20T09:42:30.722Z,98451.00
2018-06-20T09:45:11.342Z,98448.00
2018-06-20T09:47:54.436Z,98445.00
2018-06-20T09:50:36.373Z,98447.00
2018-06-20T09:53:18.918Z,98448.00
2018-06-20T09:56:02.656Z,98445.00
2018-06-20T09:58:42.240Z,98440.00
2018-06-20T10:01:24.540Z,98439.00
2018-06-20T10:04:08.400Z,98443.00
2018-06-20T10:06:55.687Z,98439.00
2018-06-20T10:09:40.901Z,98440.00
2018-06-20T10:12:25.884Z,98446.00
2018-06-20T10:15:04.874Z,98442.00
2018-06-20T10:17:46.479Z,98440.00
2018-06-20T10:20:35.499Z,98440.00
2018-06-20T10:23:14.215Z,98436.00
2018-06-20T10:25:56.082Z,98429.00
2018-06-20T10:28:35.298Z,98430.00
2018-06-20T10:31:14.504Z,98431.00
2018-06-20T10:33:56.218Z,98420.00
2018-06-20T10:36:42.319Z,98421.00
2018-06-20T10:39:25.736Z,98417.00
2018-06-20T10:42:03.102Z,98409.00
2018-06-20T10:44:44.379Z,98403.00
2018-06-20T10:47:26.821Z,98403.00
2018-06-20T10:50:05.898Z,98402.00
2018-06-20T10:52:45.920Z,98396.00
2018-06-20T10:55:26.863Z,98409.00
2018-06-20T10:58:11.601Z,98402.00
2018-06-20T11:00:58.306Z,98398.00
2018-06-20T11:03:42.643Z,98399.00
2018-06-20T11:06:34.501Z,98403.00
2018-06-20T11:09:19.937Z,98404.00
2018-06-20T11:12:01.999Z,98395.00
2018-06-20T11:14:42.180Z,98391.00
2018-06-20T11:17:28.117Z,98388.00
2018-06-20T11:20:12.462Z,98383.00
2018-06-20T11:22:51.358Z,98384.00
2018-06-20T11:25:29.983Z,98380.00
2018-06-20T11:28:15.718Z,98382.00
2018-06-20T11:30:54.164Z,98374.00
2018-06-20T11:33:33.703Z,98372.00
2018-06-20T11:36:19.443Z,98365.00
2018-06-20T11:39:01.308Z,98360.00
2018-06-20T11:41:41.379Z,98356.00
2018-06-20T12:16:58.635Z,98305.00
2018-06-20T12:19:42.000Z,98308.00
2018-06-20T12:22:25.518Z,98300.00
2018-06-20T12:25:09.522Z,98293.00
2018-06-20T12:27:56.558Z,98289.00
2018-06-20T12:30:43.480Z,98286.00
2018-06-20T14:11:09.196Z,98211.00
2018-06-20T14:13:53.719Z,98206.00
2018-06-20T14:16:35.080Z,98204.00
2018-06-20T14:19:23.121Z,98198.00
2018-06-20T14:22:05.809Z,98196.00
2018-06-20T14:24:45.578Z,98194.00
2018-06-20T14:27:27.361Z,98192.00
2018-06-20T14:30:08.879Z,98185.00
2018-06-20T14:32:54.041Z,98188.00
2018-06-20T14:35:42.220Z,98182.00
2018-06-20T14:38:25.541Z,98185.00
2018-06-20T14:41:09.302Z,98183.00
2018-06-20T14:43:56.476Z,98175.00
2018-06-20T14:46:38.145Z,98177.00
2018-06-20T14:49:21.104Z,98176.00
2018-06-20T14:52:01.979Z,98179.00
2018-06-20T14:54:42.083Z,98178.00
2018-06-20T14:57:20.825Z,98176.00
2018-06-20T15:00:01.161Z,98168.00
2018-06-20T15:02:41.238Z,98165.00
2018-06-20T15:05:20.739Z,98162.00
2018-06-20T15:08:06.181Z,98159.00
2018-06-20T15:10:50.866Z,98161.00
2018-06-20T15:13:36.976Z,98159.00
2018-06-20T15:16:19.639Z,98159.00
2018-06-20T15:19:06.543Z,98153.00
2018-06-20T15:21:46.299Z,98153.00
2018-06-20T15:24:28.304Z,98149.00
2018-06-20T15:27:12.140Z,98141.00
2018-06-20T15:29:56.822Z,98138.00
2018-06-20T15:32:43.304Z,98138.00
2018-06-20T15:35:29.139Z,98137.00
2018-06-20T15:38:22.022Z,98134.00
2018-06-20T15:41:08.181Z,98136.00
2018-06-20T15:43:47.181Z,98129.00
2018-06-20T15:46:33.200Z,98128.00
2018-06-20T15:49:16.422Z,98125.00
2018-06-20T15:51:54.725Z,98120.00
2018-06-20T15:54:41.838Z,98115.00
2018-06-20T15:57:23.700Z,98116.00
2018-06-20T16:00:07.342Z,98112.00
2018-06-20T16:02:57.220Z,98111.00
2018-06-20T16:05:40.281Z,98105.00
2018-06-20T16:08:22.180Z,98108.00
2018-06-20T16:11:02.038Z,98103.00
2018-06-20T16:13:43.698Z,98103.00
2018-06-20T16:16:22.845Z,98101.00
2018-06-20T16:19:13.181Z,98100.00
2018-06-20T16:21:56.019Z,98102.00
2018-06-20T16:24:40.182Z,98095.00
2018-06-20T16:27:27.120Z,98096.00
2018-06-20T16:30:12.760Z,98097.00
2018-06-20T16:32:58.979Z,98093.00
2018-06-20T16:35:42.919Z,98099.00
2018-06-20T16:38:23.319Z,98097.00
2018-06-20T16:41:04.340Z,98093.00
2018-06-20T16:43:43.253Z,98093.00
2018-06-20T16:46:24.581Z,98091.00
2018-06-20T16:49:04.424Z,98093.00
2018-06-20T16:51:44.457Z,98095.00
2018-06-20T16:54:20.683Z,98086.00
2018-06-20T16:57:01.844Z,98083.00
2018-06-20T16:59:50.386Z,98086.00
2018-06-20T17:02:32.176Z,98086.00
2018-06-20T17:05:12.918Z,98082.00
2018-06-20T17:07:55.880Z,98079.00
2018-06-20T17:10:39.236Z,98079.00
2018-06-20T17:13:24.781Z,98075.00
2018-06-20T17:16:08.960Z,98071.00
2018-06-20T17:18:56.944Z,98068.00
2018-06-20T17:21:38.516Z,98070.00
2018-06-20T17:24:22.242Z,98069.00
2018-06-20T17:27:01.922Z,98067.00
2018-06-20T17:29:40.059Z,98069.00
2018-06-20T17:32:21.265Z,98072.00
2018-06-20T17:35:07.002Z,98069.00
2018-06-20T17:37:55.663Z,98068.00
2018-06-20T17:40:34.185Z,98067.00
2018-06-20T17:43:15.963Z,98066.00
2018-06-20T17:45:57.603Z,98067.00
2018-06-20T17:48:43.339Z,98069.00
2018-06-20T17:51:29.688Z,98070.00
2018-06-20T17:54:16.325Z,98071.00
2018-06-20T17:56:55.937Z,98068.00
2018-06-20T17:59:34.582Z,98067.00
2018-06-20T18:02:14.783Z,98066.00
2018-06-20T18:05:00.658Z,98060.00
2018-06-20T18:07:45.121Z,98065.00
2018-06-20T18:10:29.459Z,98065.00
2018-06-20T18:13:23.680Z,98066.00
2018-06-20T18:16:11.058Z,98067.00
2018-06-20T18:18:54.359Z,98065.00
2018-06-20T18:21:41.477Z,98063.00
2018-06-20T18:24:26.081Z,98064.00
2018-06-20T18:27:07.065Z,98061.00
2018-06-20T18:29:54.126Z,98065.00
2018-06-20T18:32:32.625Z,98071.00
2018-06-20T18:35:12.676Z,98069.00
2018-06-20T18:37:56.141Z,98068.00
2018-06-20T18:40:35.880Z,98071.00
2018-06-20T18:43:13.643Z,98069.00
2018-06-20T18:45:54.784Z,98065.00
2018-06-20T18:48:35.121Z,98068.00
2018-06-20T18:51:18.883Z,98067.00
2018-06-20T18:54:01.857Z,98066.00
2018-06-20T18:56:39.821Z,98070.00
2018-06-20T18:59:26.995Z,98068.00
2018-06-20T19:02:12.523Z,98068.00
2018-06-20T19:05:00.900Z,98069.00
2018-06-20T19:07:45.778Z,98070.00
2018-06-20T19:10:24.058Z,98073.00
2018-06-20T19:13:09.447Z,98068.00
2018-06-20T19:15:54.521Z,98068.00
2018-06-20T19:18:37.065Z,98073.00
2018-06-20T19:21:18.375Z,98071.00
2018-06-20T19:23:58.321Z,98072.00
2018-06-20T19:26:41.642Z,98072.00
2018-06-20T19:29:24.567Z,98080.00
2018-06-20T19:32:05.183Z,98084.00
2018-06-20T19:34:45.348Z,98081.00
2018-06-20T19:37:27.379Z,98095.00
2018-06-20T19:40:11.520Z,98092.00
2018-06-20T19:42:52.097Z,98101.00
2018-06-20T19:45:33.795Z,98103.00
2018-06-20T19:48:15.963Z,98101.00
2018-06-20T19:51:01.839Z,98106.00
2018-06-20T19:53:45.829Z,98103.00
2018-06-20T19:56:28.160Z,98107.00
2018-06-20T19:59:08.021Z,98109.00
2018-06-20T20:01:48.028Z,98108.00
2018-06-20T20:04:28.645Z,98105.00
2018-06-20T20:07:13.623Z,98108.00
2018-06-20T20:09:54.882Z,98109.00
2018-06-20T20:12:35.423Z,98110.00
2018-06-20T20:15:18.078Z,98109.00
2018-06-20T20:17:56.120Z,98111.00
2018-06-20T20:20:36.113Z,98111.00
2018-06-20T20:23:17.464Z,98111.00
2018-06-20T20:26:01.965Z,98109.00
2018-06-20T20:28:43.382Z,98110.00
2018-06-20T20:31:25.338Z,98109.00
2018-06-20T20:34:05.102Z,98113.00
2018-06-20T20:36:44.759Z,98109.00
2018-06-20T20:39:24.666Z,98106.00
2018-06-20T20:42:08.520Z,98105.00
2018-06-20T20:44:50.139Z,98108.00
2018-06-20T20:47:33.741Z,98107.00
2018-06-20T20:50:14.208Z,98111.00
2018-06-20T20:52:53.776Z,98114.00
2018-06-20T20:55:34.065Z,98114.00
2018-06-20T20:58:13.879Z,98114.00
2018-06-20T22:34:27.457Z,98111.00
2018-06-20T22:37:08.526Z,98109.00
2018-06-20T22:39:47.823Z,98107.00
2018-06-20T22:42:27.527Z,98101.00
2018-06-20T22:45:07.577Z,98106.00
2018-06-20T22:47:48.137Z,98103.00
2018-06-20T22:50:28.178Z,98107.00
2018-06-20T22:53:08.862Z,98101.00
